Kendallville, Iowa
Current Conditions -  °F | °C
As of 8:55 AM on Tuesday 21 Oct 2014 (Local Time) from KFKA Reporting Station
Clear Clear  
Wind Chill: 37°   Ceiling: Unl
Heat Index: 41°   Visibility: 10mi
Dew Point: 38°   Wind: 6mph
Humidity: 89%   Direction: 80°E
Pressure: 30.2"   Gusts: NA
Location:  43.363°N, 92.1685°W
Report Text: KFKA 211355Z AUTO 08005KT 10SM CLR 05/03 A3020 RMK AO2 T00490032
Loading
Personal Weather Stations






























Interactive Weather Map New forecast layout! Learn more

10-Day Weather Forecast

Advertisements
Track Severe Weather on mobile